sensor_id;sensor_type;location;lat;lon;timestamp;pressure;altitude;pressure_sealevel;temperature;humidity
10852;BME280;5479;52.046;6.314;2023-07-13T00:00:31;101254.78;;;16.12;100.00
10852;BME280;5479;52.046;6.314;2023-07-13T00:03:01;101249.94;;;16.17;100.00
10852;BME280;5479;52.046;6.314;2023-07-13T00:05:29;101257.09;;;16.16;100.00
10852;BME280;5479;52.046;6.314;2023-07-13T00:07:57;101251.94;;;16.26;100.00
10852;BME280;5479;52.046;6.314;2023-07-13T00:10:25;101258.09;;;16.26;100.00
10852;BME280;5479;52.046;6.314;2023-07-13T00:12:53;101257.50;;;16.23;100.00
10852;BME280;5479;52.046;6.314;2023-07-13T00:15:25;101259.81;;;16.27;100.00
10852;BME280;5479;52.046;6.314;2023-07-13T00:17:55;101258.72;;;16.30;100.00
10852;BME280;5479;52.046;6.314;2023-07-13T00:20:25;101260.94;;;16.36;100.00
10852;BME280;5479;52.046;6.314;2023-07-13T00:22:53;101259.13;;;16.37;100.00
10852;BME280;5479;52.046;6.314;2023-07-13T00:25:22;101267.47;;;16.32;100.00
10852;BME280;5479;52.046;6.314;2023-07-13T00:27:51;101265.56;;;16.34;100.00
10852;BME280;5479;52.046;6.314;2023-07-13T00:30:19;101263.84;;;16.33;100.00
10852;BME280;5479;52.046;6.314;2023-07-13T00:32:47;101269.78;;;16.25;100.00
10852;BME280;5479;52.046;6.314;2023-07-13T00:35:16;101267.69;;;16.18;100.00
10852;BME280;5479;52.046;6.314;2023-07-13T00:37:45;101263.53;;;16.14;100.00
10852;BME280;5479;52.046;6.314;2023-07-13T00:40:15;101266.66;;;16.08;100.00
10852;BME280;5479;52.046;6.314;2023-07-13T00:42:43;101256.31;;;16.03;100.00
10852;BME280;5479;52.046;6.314;2023-07-13T00:48:20;101274.88;;;15.94;100.00
10852;BME280;5479;52.046;6.314;2023-07-13T00:50:51;101269.63;;;15.92;100.00
10852;BME280;5479;52.046;6.314;2023-07-13T00:53:21;101265.56;;;15.87;100.00
10852;BME280;5479;52.046;6.314;2023-07-13T00:55:51;101276.38;;;15.85;100.00
10852;BME280;5479;52.046;6.314;2023-07-13T00:58:21;101272.84;;;15.85;100.00
10852;BME280;5479;52.046;6.314;2023-07-13T01:00:51;101272.13;;;15.83;100.00
10852;BME280;5479;52.046;6.314;2023-07-13T01:03:19;101274.56;;;15.86;100.00
10852;BME280;5479;52.046;6.314;2023-07-13T01:05:48;101278.72;;;15.90;100.00
10852;BME280;5479;52.046;6.314;2023-07-13T01:08:17;101269.53;;;15.94;100.00
10852;BME280;5479;52.046;6.314;2023-07-13T01:10:52;101274.88;;;15.94;100.00
10852;BME280;5479;52.046;6.314;2023-07-13T01:13:21;101274.34;;;15.89;100.00
10852;BME280;5479;52.046;6.314;2023-07-13T01:15:51;101274.78;;;15.83;100.00
10852;BME280;5479;52.046;6.314;2023-07-13T01:18:21;101270.91;;;15.87;100.00
10852;BME280;5479;52.046;6.314;2023-07-13T01:20:54;101279.50;;;15.79;100.00
10852;BME280;5479;52.046;6.314;2023-07-13T01:23:22;101264.34;;;15.80;100.00
10852;BME280;5479;52.046;6.314;2023-07-13T01:25:51;101270.88;;;15.76;100.00
10852;BME280;5479;52.046;6.314;2023-07-13T01:28:19;101268.22;;;15.76;100.00
10852;BME280;5479;52.046;6.314;2023-07-13T01:30:48;101275.47;;;15.74;100.00
10852;BME280;5479;52.046;6.314;2023-07-13T01:33:17;101275.47;;;15.74;100.00
10852;BME280;5479;52.046;6.314;2023-07-13T01:35:46;101281.88;;;15.71;100.00
10852;BME280;5479;52.046;6.314;2023-07-13T01:38:18;101274.00;;;15.69;100.00
10852;BME280;5479;52.046;6.314;2023-07-13T01:40:46;101276.53;;;15.71;100.00
10852;BME280;5479;52.046;6.314;2023-07-13T01:43:15;101273.78;;;15.73;100.00
10852;BME280;5479;52.046;6.314;2023-07-13T01:45:43;101279.94;;;15.73;100.00
10852;BME280;5479;52.046;6.314;2023-07-13T01:48:12;101274.94;;;15.68;100.00
10852;BME280;5479;52.046;6.314;2023-07-13T01:50:40;101270.69;;;15.66;100.00
10852;BME280;5479;52.046;6.314;2023-07-13T01:53:08;101270.59;;;15.67;100.00
10852;BME280;5479;52.046;6.314;2023-07-13T01:55:38;101263.53;;;15.66;100.00
10852;BME280;5479;52.046;6.314;2023-07-13T01:58:06;101272.84;;;15.61;100.00
10852;BME280;5479;52.046;6.314;2023-07-13T02:00:34;101270.28;;;15.59;100.00
10852;BME280;5479;52.046;6.314;2023-07-13T02:03:03;101268.66;;;15.57;100.00
10852;BME280;5479;52.046;6.314;2023-07-13T02:05:31;101268.44;;;15.60;100.00
10852;BME280;5479;52.046;6.314;2023-07-13T02:07:59;101272.19;;;15.57;100.00
10852;BME280;5479;52.046;6.314;2023-07-13T02:10:27;101267.84;;;15.56;100.00
10852;BME280;5479;52.046;6.314;2023-07-13T02:12:57;101274.66;;;15.60;100.00
10852;BME280;5479;52.046;6.314;2023-07-13T02:15:25;101275.84;;;15.56;100.00
10852;BME280;5479;52.046;6.314;2023-07-13T02:17:54;101272.19;;;15.57;100.00
10852;BME280;5479;52.046;6.314;2023-07-13T02:20:23;101273.19;;;15.56;100.00
10852;BME280;5479;52.046;6.314;2023-07-13T02:22:51;101274.66;;;15.60;100.00
10852;BME280;5479;52.046;6.314;2023-07-13T02:25:19;101282.09;;;15.68;100.00
10852;BME280;5479;52.046;6.314;2023-07-13T02:27:47;101272.69;;;15.75;100.00
10852;BME280;5479;52.046;6.314;2023-07-13T02:30:17;101272.75;;;15.86;100.00
10852;BME280;5479;52.046;6.314;2023-07-13T02:32:45;101264.13;;;15.83;100.00
10852;BME280;5479;52.046;6.314;2023-07-13T02:35:13;101271.41;;;15.81;100.00
10852;BME280;5479;52.046;6.314;2023-07-13T02:37:41;101275.88;;;15.80;100.00
10852;BME280;5479;52.046;6.314;2023-07-13T02:40:10;101288.72;;;15.75;100.00
10852;BME280;5479;52.046;6.314;2023-07-13T02:42:38;101283.16;;;15.65;100.00
10852;BME280;5479;52.046;6.314;2023-07-13T02:45:07;101287.03;;;15.61;100.00
10852;BME280;5479;52.046;6.314;2023-07-13T02:47:37;101286.00;;;15.51;100.00
10852;BME280;5479;52.046;6.314;2023-07-13T02:50:06;101284.50;;;15.47;100.00
10852;BME280;5479;52.046;6.314;2023-07-13T02:52:35;101289.00;;;15.47;100.00
10852;BME280;5479;52.046;6.314;2023-07-13T02:55:03;101285.56;;;15.45;100.00
10852;BME280;5479;52.046;6.314;2023-07-13T02:57:31;101288.34;;;15.43;100.00
10852;BME280;5479;52.046;6.314;2023-07-13T03:00:00;101287.91;;;15.37;100.00
10852;BME280;5479;52.046;6.314;2023-07-13T03:02:32;101289.94;;;15.33;100.00
10852;BME280;5479;52.046;6.314;2023-07-13T03:05:02;101282.16;;;15.30;100.00
10852;BME280;5479;52.046;6.314;2023-07-13T03:07:30;101292.81;;;15.30;100.00
10852;BME280;5479;52.046;6.314;2023-07-13T03:09:59;101299.22;;;15.28;100.00
10852;BME280;5479;52.046;6.314;2023-07-13T03:12:27;101301.59;;;15.32;100.00
10852;BME280;5479;52.046;6.314;2023-07-13T03:14:55;101303.28;;;15.33;100.00
10852;BME280;5479;52.046;6.314;2023-07-13T03:17:23;101307.16;;;15.29;100.00
10852;BME280;5479;52.046;6.314;2023-07-13T03:19:51;101297.94;;;15.33;100.00
10852;BME280;5479;52.046;6.314;2023-07-13T03:22:21;101293.81;;;15.29;100.00
10852;BME280;5479;52.046;6.314;2023-07-13T03:24:49;101299.88;;;15.31;100.00
10852;BME280;5479;52.046;6.314;2023-07-13T03:27:17;101301.38;;;15.35;100.00
10852;BME280;5479;52.046;6.314;2023-07-13T03:29:45;101303.06;;;15.36;100.00
10852;BME280;5479;52.046;6.314;2023-07-13T03:32:14;101317.38;;;15.35;100.00
10852;BME280;5479;52.046;6.314;2023-07-13T03:34:42;101320.06;;;15.35;100.00
10852;BME280;5479;52.046;6.314;2023-07-13T03:37:10;101320.38;;;15.43;100.00
10852;BME280;5479;52.046;6.314;2023-07-13T03:39:39;101312.66;;;15.39;100.00
10852;BME280;5479;52.046;6.314;2023-07-13T03:42:07;101325.41;;;15.35;100.00
10852;BME280;5479;52.046;6.314;2023-07-13T03:44:35;101321.22;;;15.31;100.00
10852;BME280;5479;52.046;6.314;2023-07-13T03:47:04;101325.81;;;15.29;100.00
10852;BME280;5479;52.046;6.314;2023-07-13T03:49:35;101329.34;;;15.30;100.00
10852;BME280;5479;52.046;6.314;2023-07-13T03:52:04;101328.38;;;15.31;100.00
10852;BME280;5479;52.046;6.314;2023-07-13T03:54:33;101335.00;;;15.25;100.00
10852;BME280;5479;52.046;6.314;2023-07-13T03:57:03;101331.69;;;15.22;100.00
10852;BME280;5479;52.046;6.314;2023-07-13T03:59:32;101338.09;;;15.19;100.00
10852;BME280;5479;52.046;6.314;2023-07-13T04:02:00;101334.66;;;15.17;100.00
10852;BME280;5479;52.046;6.314;2023-07-13T04:04:28;101339.25;;;15.15;100.00
10852;BME280;5479;52.046;6.314;2023-07-13T04:06:57;101347.28;;;15.15;100.00
10852;BME280;5479;52.046;6.314;2023-07-13T04:09:25;101332.13;;;15.16;100.00
10852;BME280;5479;52.046;6.314;2023-07-13T04:11:53;101337.59;;;15.14;100.00
10852;BME280;5479;52.046;6.314;2023-07-13T04:14:23;101343.44;;;15.19;100.00
10852;BME280;5479;52.046;6.314;2023-07-13T04:16:51;101344.28;;;15.20;100.00
10852;BME280;5479;52.046;6.314;2023-07-13T04:19:21;101343.97;;;15.24;100.00
10852;BME280;5479;52.046;6.314;2023-07-13T04:21:49;101342.25;;;15.23;100.00
10852;BME280;5479;52.046;6.314;2023-07-13T04:24:17;101351.75;;;15.27;100.00
10852;BME280;5479;52.046;6.314;2023-07-13T04:26:45;101352.84;;;15.25;100.00
10852;BME280;5479;52.046;6.314;2023-07-13T04:29:13;101346.44;;;15.27;100.00
10852;BME280;5479;52.046;6.314;2023-07-13T04:31:43;101352.50;;;15.29;100.00
10852;BME280;5479;52.046;6.314;2023-07-13T04:34:11;101354.09;;;15.44;100.00
10852;BME280;5479;52.046;6.314;2023-07-13T04:36:39;101348.56;;;15.47;100.00
10852;BME280;5479;52.046;6.314;2023-07-13T04:39:07;101351.75;;;15.52;100.00
10852;BME280;5479;52.046;6.314;2023-07-13T04:41:36;101351.97;;;15.49;100.00
10852;BME280;5479;52.046;6.314;2023-07-13T04:44:04;101352.28;;;15.57;100.00
10852;BME280;5479;52.046;6.314;2023-07-13T04:46:32;101354.94;;;15.57;100.00
10852;BME280;5479;52.046;6.314;2023-07-13T04:49:03;101352.50;;;15.54;100.00
10852;BME280;5479;52.046;6.314;2023-07-13T04:51:31;101351.00;;;15.63;100.00
10852;BME280;5479;52.046;6.314;2023-07-13T04:53:59;101363.28;;;15.65;100.00
10852;BME280;5479;52.046;6.314;2023-07-13T04:56:27;101356.34;;;15.76;100.00
10852;BME280;5479;52.046;6.314;2023-07-13T04:58:56;101365.38;;;15.86;100.00
10852;BME280;5479;52.046;6.314;2023-07-13T05:01:25;101362.38;;;15.90;100.00
10852;BME280;5479;52.046;6.314;2023-07-13T05:03:53;101371.53;;;15.99;100.00
10852;BME280;5479;52.046;6.314;2023-07-13T05:06:24;101370.84;;;16.08;100.00
10852;BME280;5479;52.046;6.314;2023-07-13T05:08:52;101362.31;;;16.03;100.00
10852;BME280;5479;52.046;6.314;2023-07-13T05:11:20;101376.97;;;16.10;100.00
10852;BME280;5479;52.046;6.314;2023-07-13T05:13:48;101379.41;;;16.13;100.00
10852;BME280;5479;52.046;6.314;2023-07-13T05:16:16;101381.44;;;16.33;100.00
10852;BME280;5479;52.046;6.314;2023-07-13T05:18:44;101376.66;;;16.49;100.00
10852;BME280;5479;52.046;6.314;2023-07-13T05:21:12;101388.09;;;16.75;100.00
10852;BME280;5479;52.046;6.314;2023-07-13T05:23:42;101392.69;;;16.97;100.00
10852;BME280;5479;52.046;6.314;2023-07-13T05:26:10;101389.56;;;17.14;100.00
10852;BME280;5479;52.046;6.314;2023-07-13T05:28:39;101383.03;;;17.29;100.00
10852;BME280;5479;52.046;6.314;2023-07-13T05:31:08;101385.22;;;17.24;100.00
10852;BME280;5479;52.046;6.314;2023-07-13T05:33:37;101388.00;;;17.11;100.00
10852;BME280;5479;52.046;6.314;2023-07-13T05:36:05;101390.16;;;17.06;100.00
10852;BME280;5479;52.046;6.314;2023-07-13T05:38:33;101393.50;;;17.32;100.00
10852;BME280;5479;52.046;6.314;2023-07-13T05:41:04;101394.41;;;17.55;100.00
10852;BME280;5479;52.046;6.314;2023-07-13T05:43:32;101394.06;;;17.70;100.00
10852;BME280;5479;52.046;6.314;2023-07-13T05:46:00;101402.31;;;17.78;100.00
10852;BME280;5479;52.046;6.314;2023-07-13T05:48:28;101401.78;;;18.18;100.00
10852;BME280;5479;52.046;6.314;2023-07-13T05:50:56;101393.69;;;18.40;100.00
10852;BME280;5479;52.046;6.314;2023-07-13T05:53:24;101403.06;;;18.45;100.00
10852;BME280;5479;52.046;6.314;2023-07-13T05:55:54;101396.28;;;18.73;100.00
10852;BME280;5479;52.046;6.314;2023-07-13T05:58:23;101407.00;;;18.73;100.00
10852;BME280;5479;52.046;6.314;2023-07-13T06:00:59;101406.25;;;18.82;100.00
10852;BME280;5479;52.046;6.314;2023-07-13T06:03:28;101416.81;;;18.63;100.00
10852;BME280;5479;52.046;6.314;2023-07-13T06:05:56;101407.84;;;18.74;100.00
10852;BME280;5479;52.046;6.314;2023-07-13T06:08:24;101425.06;;;18.71;100.00
10852;BME280;5479;52.046;6.314;2023-07-13T06:10:52;101427.47;;;18.85;100.00
10852;BME280;5479;52.046;6.314;2023-07-13T06:13:20;101434.59;;;18.96;100.00
10852;BME280;5479;52.046;6.314;2023-07-13T06:15:52;101434.91;;;19.02;100.00
10852;BME280;5479;52.046;6.314;2023-07-13T06:18:20;101433.69;;;19.06;100.00
10852;BME280;5479;52.046;6.314;2023-07-13T06:20:48;101443.97;;;19.01;100.00
10852;BME280;5479;52.046;6.314;2023-07-13T06:23:16;101440.38;;;18.91;100.00
10852;BME280;5479;52.046;6.314;2023-07-13T06:25:45;101446.50;;;18.82;100.00
10852;BME280;5479;52.046;6.314;2023-07-13T06:28:13;101442.84;;;18.83;100.00
10852;BME280;5479;52.046;6.314;2023-07-13T06:30:41;101452.75;;;19.03;100.00
10852;BME280;5479;52.046;6.314;2023-07-13T06:33:10;101445.25;;;19.18;100.00
10852;BME280;5479;52.046;6.314;2023-07-13T06:35:38;101449.81;;;19.48;100.00
10852;BME280;5479;52.046;6.314;2023-07-13T06:38:06;101445.28;;;19.69;100.00
10852;BME280;5479;52.046;6.314;2023-07-13T06:40:35;101446.34;;;20.17;100.00
10852;BME280;5479;52.046;6.314;2023-07-13T06:43:04;101453.44;;;20.87;100.00
10852;BME280;5479;52.046;6.314;2023-07-13T06:45:35;101457.41;;;21.31;100.00
10852;BME280;5479;52.046;6.314;2023-07-13T06:48:03;101451.53;;;21.64;100.00
10852;BME280;5479;52.046;6.314;2023-07-13T06:50:33;101450.91;;;21.80;100.00
10852;BME280;5479;52.046;6.314;2023-07-13T06:53:01;101455.84;;;22.31;100.00
10852;BME280;5479;52.046;6.314;2023-07-13T06:55:29;101450.78;;;21.91;100.00
10852;BME280;5479;52.046;6.314;2023-07-13T06:57:57;101452.69;;;21.61;100.00
10852;BME280;5479;52.046;6.314;2023-07-13T07:00:26;101464.88;;;21.65;100.00
10852;BME280;5479;52.046;6.314;2023-07-13T07:02:54;101461.84;;;21.88;100.00
10852;BME280;5479;52.046;6.314;2023-07-13T07:05:22;101462.66;;;21.98;100.00
10852;BME280;5479;52.046;6.314;2023-07-13T07:07:55;101465.41;;;21.88;100.00
10852;BME280;5479;52.046;6.314;2023-07-13T07:10:23;101456.66;;;21.57;100.00
10852;BME280;5479;52.046;6.314;2023-07-13T07:12:51;101470.03;;;21.11;100.00
10852;BME280;5479;52.046;6.314;2023-07-13T07:15:19;101466.31;;;20.64;100.00
10852;BME280;5479;52.046;6.314;2023-07-13T07:17:47;101478.22;;;20.62;100.00
10852;BME280;5479;52.046;6.314;2023-07-13T07:20:15;101476.09;;;20.65;100.00
10852;BME280;5479;52.046;6.314;2023-07-13T07:22:43;101477.03;;;20.55;100.00
10852;BME280;5479;52.046;6.314;2023-07-13T07:25:14;101481.00;;;20.41;100.00
10852;BME280;5479;52.046;6.314;2023-07-13T07:27:42;101481.00;;;20.11;100.00
10852;BME280;5479;52.046;6.314;2023-07-13T07:30:12;101486.28;;;19.92;100.00
10852;BME280;5479;52.046;6.314;2023-07-13T07:32:40;101483.97;;;20.17;100.00
10852;BME280;5479;52.046;6.314;2023-07-13T07:35:10;101479.28;;;20.30;100.00
10852;BME280;5479;52.046;6.314;2023-07-13T07:37:42;101474.28;;;20.26;100.00
10852;BME280;5479;52.046;6.314;2023-07-13T07:40:10;101481.41;;;20.36;100.00
10852;BME280;5479;52.046;6.314;2023-07-13T07:42:41;101481.81;;;20.41;100.00
10852;BME280;5479;52.046;6.314;2023-07-13T07:45:10;101465.91;;;20.19;100.00
10852;BME280;5479;52.046;6.314;2023-07-13T07:47:38;101480.41;;;20.37;100.00
10852;BME280;5479;52.046;6.314;2023-07-13T07:50:07;101479.41;;;20.38;100.00
10852;BME280;5479;52.046;6.314;2023-07-13T07:52:36;101475.19;;;20.45;100.00
10852;BME280;5479;52.046;6.314;2023-07-13T07:55:05;101473.66;;;20.53;100.00
10852;BME280;5479;52.046;6.314;2023-07-13T07:57:35;101468.25;;;20.53;100.00
10852;BME280;5479;52.046;6.314;2023-07-13T08:00:06;101470.25;;;20.41;100.00
10852;BME280;5479;52.046;6.314;2023-07-13T08:02:34;101473.09;;;20.49;100.00
10852;BME280;5479;52.046;6.314;2023-07-13T08:05:02;101474.44;;;20.24;100.00
10852;BME280;5479;52.046;6.314;2023-07-13T08:07:31;101474.00;;;20.29;100.00
10852;BME280;5479;52.046;6.314;2023-07-13T08:09:59;101473.66;;;20.53;100.00
10852;BME280;5479;52.046;6.314;2023-07-13T08:12:27;101467.16;;;20.65;100.00
10852;BME280;5479;52.046;6.314;2023-07-13T08:14:55;101474.66;;;20.71;100.00
10852;BME280;5479;52.046;6.314;2023-07-13T08:17:26;101466.28;;;20.55;100.00
10852;BME280;5479;52.046;6.314;2023-07-13T08:19:55;101470.44;;;20.78;100.00
10852;BME280;5479;52.046;6.314;2023-07-13T08:22:23;101469.44;;;20.98;100.00
10852;BME280;5479;52.046;6.314;2023-07-13T08:24:51;101477.41;;;21.09;100.00
10852;BME280;5479;52.046;6.314;2023-07-13T08:27:23;101470.34;;;21.18;100.00
10852;BME280;5479;52.046;6.314;2023-07-13T08:29:52;101473.41;;;21.03;100.00
10852;BME280;5479;52.046;6.314;2023-07-13T08:32:21;101483.50;;;21.11;100.00
10852;BME280;5479;52.046;6.314;2023-07-13T08:34:51;101472.00;;;20.99;100.00
10852;BME280;5479;52.046;6.314;2023-07-13T08:37:19;101474.56;;;21.01;100.00
10852;BME280;5479;52.046;6.314;2023-07-13T08:39:47;101475.16;;;21.14;100.00
10852;BME280;5479;52.046;6.314;2023-07-13T08:42:26;101471.16;;;21.47;100.00
10852;BME280;5479;52.046;6.314;2023-07-13T08:45:07;101468.75;;;21.44;100.00
10852;BME280;5479;52.046;6.314;2023-07-13T08:47:42;101472.13;;;22.02;100.00
10852;BME280;5479;52.046;6.314;2023-07-13T08:50:16;101469.56;;;22.64;100.00
10852;BME280;5479;52.046;6.314;2023-07-13T08:52:45;101465.28;;;24.35;100.00
10852;BME280;5479;52.046;6.314;2023-07-13T08:55:17;101453.25;;;25.28;98.60
10852;BME280;5479;52.046;6.314;2023-07-13T08:57:55;101455.59;;;25.79;93.39
10852;BME280;5479;52.046;6.314;2023-07-13T09:00:25;101452.91;;;25.63;94.38
10852;BME280;5479;52.046;6.314;2023-07-13T09:03:00;101453.63;;;25.25;95.78
10852;BME280;5479;52.046;6.314;2023-07-13T09:05:36;101453.09;;;25.22;94.56
10852;BME280;5479;52.046;6.314;2023-07-13T09:08:18;101462.41;;;26.30;84.86
10852;BME280;5479;52.046;6.314;2023-07-13T09:11:03;101444.66;;;26.51;82.12
10852;BME280;5479;52.046;6.314;2023-07-13T09:13:40;101443.59;;;25.58;85.69
10852;BME280;5479;52.046;6.314;2023-07-13T09:16:11;101453.09;;;25.46;92.35
10852;BME280;5479;52.046;6.314;2023-07-13T09:18:42;101455.47;;;25.65;86.58
10852;BME280;5479;52.046;6.314;2023-07-13T09:21:15;101440.38;;;24.82;95.34
10852;BME280;5479;52.046;6.314;2023-07-13T09:23:44;101449.56;;;24.05;100.00
10852;BME280;5479;52.046;6.314;2023-07-13T09:26:15;101453.31;;;23.78;100.00
10852;BME280;5479;52.046;6.314;2023-07-13T09:28:48;101454.28;;;23.26;100.00
10852;BME280;5479;52.046;6.314;2023-07-13T09:31:24;101460.53;;;23.09;100.00
10852;BME280;5479;52.046;6.314;2023-07-13T09:33:55;101465.66;;;22.49;100.00
10852;BME280;5479;52.046;6.314;2023-07-13T09:36:28;101466.97;;;21.91;100.00
10852;BME280;5479;52.046;6.314;2023-07-13T09:39:01;101471.06;;;21.10;100.00
10852;BME280;5479;52.046;6.314;2023-07-13T09:41:37;101471.63;;;20.35;100.00
10852;BME280;5479;52.046;6.314;2023-07-13T09:44:10;101479.75;;;19.64;100.00
10852;BME280;5479;52.046;6.314;2023-07-13T09:46:44;101475.03;;;19.36;100.00
10852;BME280;5479;52.046;6.314;2023-07-13T09:49:12;101472.66;;;19.21;100.00
10852;BME280;5479;52.046;6.314;2023-07-13T09:51:43;101475.34;;;19.21;100.00
10852;BME280;5479;52.046;6.314;2023-07-13T09:54:19;101477.47;;;19.59;100.00
10852;BME280;5479;52.046;6.314;2023-07-13T09:56:48;101460.97;;;21.31;100.00
10852;BME280;5479;52.046;6.314;2023-07-13T09:59:23;101463.47;;;22.08;100.00
10852;BME280;5479;52.046;6.314;2023-07-13T10:01:51;101463.25;;;21.92;100.00
10852;BME280;5479;52.046;6.314;2023-07-13T10:04:21;101471.97;;;21.57;100.00
10852;BME280;5479;52.046;6.314;2023-07-13T10:07:12;101464.03;;;21.55;100.00
10852;BME280;5479;52.046;6.314;2023-07-13T10:09:52;101466.88;;;21.54;100.00
10852;BME280;5479;52.046;6.314;2023-07-13T10:12:21;101473.50;;;21.88;100.00
10852;BME280;5479;52.046;6.314;2023-07-13T10:14:52;101483.59;;;21.57;100.00
10852;BME280;5479;52.046;6.314;2023-07-13T10:17:31;101504.00;;;20.74;100.00
10852;BME280;5479;52.046;6.314;2023-07-13T10:20:02;101516.06;;;19.38;100.00
10852;BME280;5479;52.046;6.314;2023-07-13T10:22:36;101515.69;;;18.67;100.00
10852;BME280;5479;52.046;6.314;2023-07-13T10:25:14;101521.19;;;18.33;100.00
10852;BME280;5479;52.046;6.314;2023-07-13T10:27:43;101525.09;;;18.29;100.00
10852;BME280;5479;52.046;6.314;2023-07-13T10:30:16;101529.06;;;18.79;100.00
10852;BME280;5479;52.046;6.314;2023-07-13T10:32:47;101508.34;;;20.16;100.00
10852;BME280;5479;52.046;6.314;2023-07-13T10:35:17;101518.22;;;21.43;100.00
10852;BME280;5479;52.046;6.314;2023-07-13T10:37:49;101511.63;;;22.30;100.00
10852;BME280;5479;52.046;6.314;2023-07-13T10:40:25;101507.13;;;23.38;100.00
10852;BME280;5479;52.046;6.314;2023-07-13T10:42:58;101501.53;;;24.09;100.00
10852;BME280;5479;52.046;6.314;2023-07-13T10:45:30;101501.22;;;25.44;100.00
10852;BME280;5479;52.046;6.314;2023-07-13T10:48:02;101508.09;;;26.58;100.00
10852;BME280;5479;52.046;6.314;2023-07-13T10:50:32;101499.03;;;27.49;100.00
10852;BME280;5479;52.046;6.314;2023-07-13T10:53:15;101507.81;;;27.29;88.64
10852;BME280;5479;52.046;6.314;2023-07-13T10:55:55;101508.41;;;27.62;81.82
10852;BME280;5479;52.046;6.314;2023-07-13T10:58:32;101508.41;;;27.62;90.84
10852;BME280;5479;52.046;6.314;2023-07-13T11:01:07;101515.13;;;26.83;95.39
10852;BME280;5479;52.046;6.314;2023-07-13T11:03:37;101508.56;;;27.45;87.36
10852;BME280;5479;52.046;6.314;2023-07-13T11:06:16;101503.47;;;26.97;94.62
10852;BME280;5479;52.046;6.314;2023-07-13T11:08:53;101505.53;;;26.95;86.05
10852;BME280;5479;52.046;6.314;2023-07-13T11:11:37;101497.44;;;27.10;82.52
10852;BME280;5479;52.046;6.314;2023-07-13T11:14:27;101500.84;;;26.81;79.17
10852;BME280;5479;52.046;6.314;2023-07-13T11:17:36;101504.25;;;26.83;79.86
10852;BME280;5479;52.046;6.314;2023-07-13T11:20:22;101501.72;;;25.79;84.28
10852;BME280;5479;52.046;6.314;2023-07-13T11:22:52;101507.31;;;25.30;92.59
10852;BME280;5479;52.046;6.314;2023-07-13T11:25:27;101501.06;;;25.61;93.71
10852;BME280;5479;52.046;6.314;2023-07-13T11:28:17;101524.09;;;25.17;89.56
10852;BME280;5479;52.046;6.314;2023-07-13T11:31:00;101530.31;;;23.92;100.00
10852;BME280;5479;52.046;6.314;2023-07-13T11:33:49;101537.13;;;23.00;100.00
10852;BME280;5479;52.046;6.314;2023-07-13T11:36:19;101534.03;;;23.91;100.00
10852;BME280;5479;52.046;6.314;2023-07-13T11:38:57;101539.31;;;25.18;98.18
10852;BME280;5479;52.046;6.314;2023-07-13T11:41:33;101538.81;;;24.98;99.65
10852;BME280;5479;52.046;6.314;2023-07-13T11:44:07;101536.13;;;24.23;100.00
10852;BME280;5479;52.046;6.314;2023-07-13T11:46:38;101533.13;;;23.82;100.00
10852;BME280;5479;52.046;6.314;2023-07-13T11:49:06;101531.97;;;24.11;100.00
10852;BME280;5479;52.046;6.314;2023-07-13T11:51:36;101527.66;;;25.42;100.00
10852;BME280;5479;52.046;6.314;2023-07-13T11:54:12;101523.63;;;25.70;85.74
10852;BME280;5479;52.046;6.314;2023-07-13T11:56:44;101518.16;;;25.46;87.77
10852;BME280;5479;52.046;6.314;2023-07-13T11:59:13;101539.28;;;23.92;100.00
10852;BME280;5479;52.046;6.314;2023-07-13T12:01:44;101564.44;;;23.14;100.00
10852;BME280;5479;52.046;6.314;2023-07-13T12:04:21;101576.56;;;20.85;100.00
10852;BME280;5479;52.046;6.314;2023-07-13T12:07:03;101600.28;;;19.37;100.00
10852;BME280;5479;52.046;6.314;2023-07-13T12:09:33;101575.69;;;18.78;100.00
10852;BME280;5479;52.046;6.314;2023-07-13T12:12:10;101577.66;;;18.53;100.00
10852;BME280;5479;52.046;6.314;2023-07-13T12:14:40;101575.56;;;18.68;100.00
10852;BME280;5479;52.046;6.314;2023-07-13T12:17:16;101574.03;;;18.97;100.00
10852;BME280;5479;52.046;6.314;2023-07-13T12:19:47;101567.00;;;19.39;100.00
10852;BME280;5479;52.046;6.314;2023-07-13T12:22:16;101565.31;;;19.79;100.00
10852;BME280;5479;52.046;6.314;2023-07-13T12:24:47;101552.88;;;20.69;100.00
10852;BME280;5479;52.046;6.314;2023-07-13T12:27:20;101553.53;;;21.69;100.00
10852;BME280;5479;52.046;6.314;2023-07-13T12:29:56;101542.97;;;22.41;100.00
10852;BME280;5479;52.046;6.314;2023-07-13T12:32:26;101542.22;;;23.03;100.00
10852;BME280;5479;52.046;6.314;2023-07-13T12:35:07;101539.69;;;23.19;100.00
10852;BME280;5479;52.046;6.314;2023-07-13T12:37:41;101534.25;;;24.57;100.00
10852;BME280;5479;52.046;6.314;2023-07-13T12:40:13;101526.78;;;25.01;100.00
10852;BME280;5479;52.046;6.314;2023-07-13T12:42:51;101528.06;;;24.39;100.00
10852;BME280;5479;52.046;6.314;2023-07-13T12:45:24;101546.59;;;23.74;100.00
10852;BME280;5479;52.046;6.314;2023-07-13T12:47:56;101545.34;;;22.80;100.00
10852;BME280;5479;52.046;6.314;2023-07-13T12:50:30;101543.44;;;22.36;100.00
10852;BME280;5479;52.046;6.314;2023-07-13T12:53:05;101536.38;;;21.60;100.00
10852;BME280;5479;52.046;6.314;2023-07-13T12:55:43;101557.59;;;20.86;100.00
10852;BME280;5479;52.046;6.314;2023-07-13T12:58:17;101559.09;;;20.70;100.00
10852;BME280;5479;52.046;6.314;2023-07-13T13:00:50;101559.00;;;20.90;100.00
10852;BME280;5479;52.046;6.314;2023-07-13T13:03:25;101562.13;;;20.95;100.00
10852;BME280;5479;52.046;6.314;2023-07-13T13:05:58;101587.59;;;20.82;100.00
10852;BME280;5479;52.046;6.314;2023-07-13T13:08:30;101595.25;;;19.75;100.00
10852;BME280;5479;52.046;6.314;2023-07-13T13:11:00;101607.56;;;19.03;100.00